Time;durP1;ratioP1;P1;durP2;ratioP2;P2;SDS_P1;SDS_P2;PMS_P1;PMS_P2;Temp;Humidity;BMP_temperature;BMP_pressure;BME280_temperature;BME280_humidity;BME280_pressure;Samples;Min_cycle;Max_cycle;Signal;HPM_P1;HPM_P2
2023/12/28 00:01:15;;;;;;;19.02;10.80;;;;;;;7.87;100.00;101070.97;5092337;28;20121;-43
2023/12/28 00:03:43;;;;;;;21.63;11.13;;;;;;;7.78;100.00;101070.41;5091914;28;20046;-41
2023/12/28 00:06:13;;;;;;;19.40;10.90;;;;;;;7.79;100.00;101066.84;5092277;28;20040;-43
2023/12/28 00:08:42;;;;;;;21.83;12.10;;;;;;;7.72;100.00;101068.84;5096174;28;20047;-42
2023/12/28 00:11:17;;;;;;;18.08;10.85;;;;;;;7.76;100.00;101067.81;5111664;28;20051;-41
2023/12/28 00:13:47;;;;;;;17.17;10.48;;;;;;;7.74;100.00;101074.97;5111791;28;20184;-41
2023/12/28 00:16:15;;;;;;;17.30;10.70;;;;;;;7.75;100.00;101072.25;5111576;28;20223;-49
2023/12/28 00:18:43;;;;;;;17.95;10.77;;;;;;;7.75;100.00;101074.06;5112033;28;20093;-43
2023/12/28 00:21:13;;;;;;;16.77;10.43;;;;;;;7.73;100.00;101079.44;5112000;28;20043;-42
2023/12/28 00:23:42;;;;;;;18.33;11.52;;;;;;;7.68;100.00;101086.69;5095914;28;20504;-42
2023/12/28 00:26:10;;;;;;;19.23;10.23;;;;;;;7.72;100.00;101084.75;5091141;28;20140;-42
2023/12/28 00:28:39;;;;;;;19.48;10.80;;;;;;;7.73;100.00;101090.06;5090850;28;20040;-41
2023/12/28 00:31:07;;;;;;;18.67;11.35;;;;;;;7.65;100.00;101099.19;5097847;28;20047;-41
2023/12/28 00:33:35;;;;;;;19.42;10.50;;;;;;;7.63;100.00;101087.78;5111727;28;20148;-43
2023/12/28 00:36:04;;;;;;;19.98;10.73;;;;;;;7.64;100.00;101092.16;5111686;28;20040;-41
2023/12/28 00:38:35;;;;;;;18.58;10.65;;;;;;;7.63;100.00;101082.47;5111598;28;20067;-42
2023/12/28 00:41:04;;;;;;;17.83;10.02;;;;;;;7.65;100.00;101081.47;5111414;27;20044;-42
2023/12/28 00:43:32;;;;;;;19.05;10.05;;;;;;;7.63;100.00;101091.28;5101093;28;20052;-41
2023/12/28 00:46:00;;;;;;;19.60;10.32;;;;;;;7.64;100.00;101079.75;5091575;28;20471;-42
2023/12/28 00:48:29;;;;;;;20.40;11.45;;;;;;;7.59;100.00;101087.00;5091591;28;20135;-41
2023/12/28 00:50:58;;;;;;;18.48;10.30;;;;;;;7.63;100.00;101093.09;5091430;28;20146;-43
2023/12/28 00:53:27;;;;;;;21.17;9.98;;;;;;;7.70;100.00;101084.81;5106754;28;20047;-41
2023/12/28 00:55:57;;;;;;;16.08;9.88;;;;;;;7.64;100.00;101084.19;5110540;28;20090;-42
2023/12/28 00:58:25;;;;;;;16.67;10.10;;;;;;;7.66;100.00;101098.28;5090687;28;20108;-43
2023/12/28 01:00:56;;;;;;;18.30;9.23;;;;;;;7.62;100.00;101097.50;5091156;28;20052;-43
2023/12/28 01:03:25;;;;;;;17.25;9.82;;;;;;;7.59;100.00;101102.06;5090895;28;20048;-43
2023/12/28 01:05:54;;;;;;;15.13;9.57;;;;;;;7.62;100.00;101107.25;5099298;28;20499;-42
2023/12/28 01:08:22;;;;;;;18.65;10.25;;;;;;;7.61;100.00;101108.19;5110963;28;20452;-42
2023/12/28 01:10:50;;;;;;;14.77;9.00;;;;;;;7.60;100.00;101099.34;5111239;28;20054;-42
2023/12/28 01:13:20;;;;;;;14.90;9.32;;;;;;;7.67;100.00;101102.66;5109525;28;20126;-42
2023/12/28 01:15:48;;;;;;;15.50;9.13;;;;;;;7.76;100.00;101089.06;5111047;28;20481;-41
2023/12/28 01:18:17;;;;;;;16.83;9.80;;;;;;;7.82;100.00;101091.53;5070249;28;20044;-41
2023/12/28 01:20:45;;;;;;;17.48;10.10;;;;;;;7.67;100.00;101100.00;5070505;28;20386;-42
2023/12/28 01:23:14;;;;;;;18.58;9.35;;;;;;;7.70;100.00;101092.78;5070638;28;20048;-42
2023/12/28 01:25:42;;;;;;;17.15;9.30;;;;;;;7.68;100.00;101096.44;5089948;28;20128;-43
2023/12/28 01:28:11;;;;;;;20.58;9.85;;;;;;;7.73;100.00;101089.19;5093095;28;20105;-41
2023/12/28 01:30:40;;;;;;;13.70;9.27;;;;;;;7.74;100.00;101085.59;5106724;28;20047;-42
2023/12/28 01:33:12;;;;;;;16.52;9.38;;;;;;;7.69;100.00;101082.22;5112029;28;20051;-42
2023/12/28 01:35:40;;;;;;;17.50;9.98;;;;;;;7.75;100.00;101087.34;5115064;28;20408;-41
2023/12/28 01:38:09;;;;;;;17.45;9.57;;;;;;;7.81;100.00;101084.44;5115099;28;20122;-42
2023/12/28 01:40:37;;;;;;;18.52;9.43;;;;;;;7.79;100.00;101080.97;5114989;28;20136;-42
2023/12/28 01:43:05;;;;;;;17.10;9.77;;;;;;;7.66;100.00;101085.00;5108446;28;20044;-42
2023/12/28 01:45:34;;;;;;;16.38;9.23;;;;;;;7.59;100.00;101070.19;5094382;28;20051;-42
2023/12/28 01:48:07;;;;;;;13.48;8.60;;;;;;;7.53;100.00;101065.97;5094040;28;20539;-41
2023/12/28 01:50:37;;;;;;;14.77;8.73;;;;;;;7.58;100.00;101071.13;5094450;28;20100;-41
2023/12/28 01:53:05;;;;;;;15.77;8.68;;;;;;;7.46;100.00;101070.63;5094255;28;20123;-42
2023/12/28 01:55:35;;;;;;;19.73;9.48;;;;;;;7.53;100.00;101062.44;5094826;28;20051;-43
2023/12/28 01:58:03;;;;;;;16.90;9.50;;;;;;;7.57;100.00;101061.44;5114282;28;20534;-43
2023/12/28 02:00:34;;;;;;;15.95;9.85;;;;;;;7.46;100.00;101057.34;5114365;28;20047;-42
2023/12/28 02:03:03;;;;;;;16.27;9.32;;;;;;;7.43;100.00;101057.47;5114553;28;20046;-41
2023/12/28 02:05:34;;;;;;;15.18;9.23;;;;;;;7.46;100.00;101046.75;5114585;28;20043;-42
2023/12/28 02:08:03;;;;;;;15.27;9.52;;;;;;;7.53;100.00;101058.03;5114201;28;20051;-42
2023/12/28 02:10:31;;;;;;;16.48;9.80;;;;;;;7.56;100.00;101051.72;5114100;28;20047;-44
2023/12/28 02:12:59;;;;;;;18.02;10.13;;;;;;;7.45;100.00;101047.66;5114208;27;20096;-42
2023/12/28 02:15:28;;;;;;;16.23;9.55;;;;;;;7.34;100.00;101049.81;5097982;28;20044;-45
2023/12/28 02:18:00;;;;;;;16.83;9.68;;;;;;;7.40;100.00;101043.41;5093803;28;20048;-42
2023/12/28 02:20:30;;;;;;;15.27;8.55;;;;;;;7.31;100.00;101049.91;5093819;28;20519;-42
2023/12/28 02:23:00;;;;;;;16.77;9.43;;;;;;;7.27;100.00;101044.78;5093548;28;20044;-46
2023/12/28 02:25:30;;;;;;;16.27;9.15;;;;;;;7.23;100.00;101040.47;5093332;28;20064;-42
2023/12/28 02:27:59;;;;;;;17.10;9.18;;;;;;;7.21;100.00;101042.31;5108139;28;20116;-41
2023/12/28 02:30:29;;;;;;;17.83;9.65;;;;;;;7.18;100.00;101033.53;5114064;28;20231;-42
2023/12/28 02:33:12;;;;;;;14.23;8.93;;;;;;;7.17;100.00;101037.13;5113741;28;20151;-41
2023/12/28 02:35:45;;;;;;;18.93;9.90;;;;;;;7.17;100.00;101031.81;5113930;28;20040;-42
2023/12/28 02:38:15;;;;;;;17.58;10.02;;;;;;;7.13;100.00;101024.84;5113573;28;20126;-41
2023/12/28 02:40:46;;;;;;;17.20;9.45;;;;;;;7.16;100.00;101019.47;5101704;28;20060;-41
2023/12/28 02:43:15;;;;;;;17.05;9.07;;;;;;;7.26;100.00;101021.81;5093388;28;20101;-41
2023/12/28 02:45:43;;;;;;;15.30;8.90;;;;;;;7.17;100.00;101020.34;5092613;28;20145;-43
2023/12/28 02:48:12;;;;;;;14.65;9.05;;;;;;;7.10;100.00;101022.31;5093887;28;20058;-41
2023/12/28 02:50:40;;;;;;;21.50;9.15;;;;;;;7.10;100.00;101019.66;5113377;28;20054;-42
2023/12/28 02:53:08;;;;;;;14.80;9.23;;;;;;;7.03;100.00;101015.47;5113232;28;20050;-41
2023/12/28 02:55:37;;;;;;;16.80;10.20;;;;;;;7.06;100.00;101020.69;5113472;28;20048;-42
2023/12/28 02:58:07;;;;;;;15.95;9.70;;;;;;;7.07;100.00;101018.91;5100740;28;20127;-41
2023/12/28 03:00:35;;;;;;;17.13;9.60;;;;;;;7.06;100.00;101011.88;5092705;28;20079;-41
2023/12/28 03:03:04;;;;;;;17.65;9.73;;;;;;;7.07;100.00;101006.50;5092943;28;20109;-42
2023/12/28 03:05:32;;;;;;;18.10;10.15;;;;;;;7.08;100.00;101015.34;5092460;28;20495;-40
2023/12/28 03:08:01;;;;;;;18.20;10.18;;;;;;;6.98;100.00;101008.59;5092674;28;20051;-41
2023/12/28 03:10:29;;;;;;;16.17;9.30;;;;;;;6.98;100.00;101003.31;5103236;28;20039;-41
2023/12/28 03:12:58;;;;;;;15.48;8.90;;;;;;;6.97;100.00;101007.75;5112572;28;20083;-41
2023/12/28 03:15:28;;;;;;;18.00;10.10;;;;;;;7.04;100.00;101008.38;5112932;28;20047;-42
2023/12/28 03:17:56;;;;;;;17.98;9.55;;;;;;;6.99;100.00;100999.72;5112672;28;20043;-42
2023/12/28 03:20:25;;;;;;;15.70;9.93;;;;;;;6.94;100.00;100993.69;5098864;28;20044;-41
2023/12/28 03:22:53;;;;;;;17.42;9.63;;;;;;;6.98;100.00;101003.31;5092382;28;20051;-42
2023/12/28 03:25:22;;;;;;;17.55;9.70;;;;;;;6.91;100.00;100996.47;5092340;28;20051;-43
2023/12/28 03:27:50;;;;;;;17.60;10.48;;;;;;;6.93;100.00;100991.97;5092712;28;20071;-42
2023/12/28 03:30:18;;;;;;;18.48;9.80;;;;;;;6.93;100.00;100989.31;5092460;28;20053;-42
2023/12/28 03:32:48;;;;;;;17.85;10.10;;;;;;;6.84;100.00;100982.53;5092035;28;20489;-41
2023/12/28 03:35:17;;;;;;;17.35;9.65;;;;;;;6.87;100.00;100983.31;5092571;28;20047;-40
2023/12/28 03:37:45;;;;;;;18.20;9.88;;;;;;;6.73;100.00;100982.88;5108687;28;20047;-42
2023/12/28 03:40:14;;;;;;;16.58;9.18;;;;;;;6.73;100.00;100982.88;5112444;28;20048;-42
2023/12/28 03:42:45;;;;;;;17.50;9.98;;;;;;;6.77;100.00;100979.22;5112384;28;20518;-41
2023/12/28 03:45:16;;;;;;;15.43;9.25;;;;;;;6.85;100.00;100979.84;5112428;28;20132;-42
2023/12/28 03:47:45;;;;;;;16.13;9.90;;;;;;;6.75;100.00;100975.75;5099755;28;20105;-43
2023/12/28 03:50:15;;;;;;;16.65;9.73;;;;;;;6.66;100.00;100980.47;5096685;28;20104;-40
2023/12/28 03:52:43;;;;;;;16.92;9.95;;;;;;;6.59;100.00;100972.75;5091595;28;20571;-41
2023/12/28 03:55:12;;;;;;;19.40;10.60;;;;;;;6.59;100.00;100963.91;5091921;28;20076;-44
2023/12/28 03:57:42;;;;;;;18.10;10.18;;;;;;;6.70;100.00;100961.78;5091162;28;20096;-42
2023/12/28 04:00:11;;;;;;;17.58;10.18;;;;;;;6.71;100.00;100963.50;5091549;28;20044;-41
2023/12/28 04:02:40;;;;;;;17.35;10.43;;;;;;;6.67;100.00;100955.72;5091756;28;20090;-43
2023/12/28 04:05:09;;;;;;;18.27;10.18;;;;;;;6.70;100.00;100961.78;5091641;28;20040;-41
2023/12/28 04:07:39;;;;;;;20.08;10.73;;;;;;;6.63;100.00;100954.06;5091486;28;20044;-49
2023/12/28 04:10:08;;;;;;;22.63;11.25;;;;;;;6.63;100.00;100954.94;5091406;28;20048;-41
2023/12/28 04:12:37;;;;;;;20.42;11.07;;;;;;;6.56;100.00;100964.00;5091231;28;20211;-43
2023/12/28 04:15:06;;;;;;;18.88;11.27;;;;;;;6.65;100.00;100961.06;5091349;28;20051;-41
2023/12/28 04:17:34;;;;;;;19.10;10.68;;;;;;;6.60;100.00;100953.25;5091177;28;20044;-42
2023/12/28 04:20:04;;;;;;;19.77;10.18;;;;;;;6.51;100.00;100955.34;5105621;28;20050;-42
2023/12/28 04:22:32;;;;;;;18.67;10.60;;;;;;;6.28;100.00;100949.00;5111482;28;20069;-41
2023/12/28 04:25:02;;;;;;;18.83;10.18;;;;;;;6.36;100.00;100943.44;5107505;28;20123;-42
2023/12/28 04:27:30;;;;;;;19.60;9.93;;;;;;;6.37;100.00;100942.56;5090889;28;20480;-42
2023/12/28 04:29:59;;;;;;;19.80;10.25;;;;;;;6.48;100.00;100934.25;5099850;28;20059;-42
2023/12/28 04:32:27;;;;;;;17.95;10.23;;;;;;;6.41;100.00;100938.00;5111363;28;20044;-41
2023/12/28 04:34:57;;;;;;;19.77;10.27;;;;;;;6.40;100.00;100936.28;5111480;28;20134;-40
2023/12/28 04:37:26;;;;;;;18.20;10.32;;;;;;;6.42;100.00;100930.00;5111449;28;20425;-41
2023/12/28 04:39:55;;;;;;;17.30;9.75;;;;;;;6.43;100.00;100933.53;5108633;27;20572;-41
2023/12/28 04:42:24;;;;;;;18.05;9.85;;;;;;;6.39;100.00;100923.94;5091015;28;20044;-42
2023/12/28 04:44:53;;;;;;;16.88;9.82;;;;;;;6.37;100.00;100925.75;5090966;28;20054;-42
2023/12/28 04:47:21;;;;;;;19.85;9.80;;;;;;;6.45;100.00;100923.72;5090845;28;20481;-43
2023/12/28 04:49:49;;;;;;;22.73;10.35;;;;;;;6.48;100.00;100921.00;5091385;28;20066;-41
2023/12/28 04:52:18;;;;;;;17.40;9.88;;;;;;;6.37;100.00;100921.34;5097237;28;20048;-42
2023/12/28 04:54:46;;;;;;;16.73;9.95;;;;;;;6.35;100.00;100927.59;5090980;28;20485;-42
2023/12/28 04:57:14;;;;;;;19.40;9.27;;;;;;;6.33;100.00;100919.69;5107897;28;20047;-42
2023/12/28 04:59:44;;;;;;;17.63;9.95;;;;;;;6.30;100.00;100925.09;5111070;28;20051;-41
2023/12/28 05:02:12;;;;;;;15.60;9.25;;;;;;;6.23;100.00;100924.41;5111017;28;20064;-42
2023/12/28 05:04:40;;;;;;;16.63;9.82;;;;;;;6.12;100.00;100937.13;5110881;28;20090;-42
2023/12/28 05:07:09;;;;;;;17.45;9.88;;;;;;;6.15;100.00;100938.81;5110411;28;20076;-42
2023/12/28 05:09:37;;;;;;;16.40;9.30;;;;;;;6.02;100.00;100943.63;5110441;28;20071;-42
2023/12/28 05:12:06;;;;;;;19.77;8.85;;;;;;;6.04;100.00;100947.09;5095680;28;20565;-41
2023/12/28 05:14:35;;;;;;;18.80;9.88;;;;;;;6.00;100.00;100937.53;5090408;28;20469;-42
2023/12/28 05:17:04;;;;;;;15.88;8.82;;;;;;;6.02;100.00;100941.84;5090430;28;20047;-41
2023/12/28 05:19:33;;;;;;;16.08;10.00;;;;;;;6.09;100.00;100937.25;5090589;28;20478;-42
2023/12/28 05:22:03;;;;;;;17.85;9.68;;;;;;;6.10;100.00;100938.09;5094621;28;20044;-41
2023/12/28 05:24:31;;;;;;;16.50;9.85;;;;;;;6.10;100.00;100941.63;5110974;28;20044;-42
2023/12/28 05:27:00;;;;;;;19.45;9.50;;;;;;;6.15;100.00;100942.34;5107738;28;20102;-41
2023/12/28 05:29:28;;;;;;;18.02;9.27;;;;;;;6.28;100.00;100940.19;5099899;28;20154;-41
2023/12/28 05:31:57;;;;;;;18.60;9.15;;;;;;;6.25;100.00;100940.25;5099431;28;20565;-43
2023/12/28 05:34:26;;;;;;;17.75;9.38;;;;;;;6.11;100.00;100945.13;5090615;28;20048;-42
2023/12/28 05:36:55;;;;;;;16.50;8.88;;;;;;;6.10;100.00;100940.75;5090558;28;20472;-42
2023/12/28 05:39:23;;;;;;;15.75;9.27;;;;;;;6.07;100.00;100936.41;5093142;28;20058;-42
2023/12/28 05:41:51;;;;;;;15.40;9.30;;;;;;;6.07;100.00;100939.06;5110886;28;20051;-42
2023/12/28 05:44:20;;;;;;;15.82;9.00;;;;;;;6.09;100.00;100942.53;5110704;28;20433;-42
2023/12/28 05:46:49;;;;;;;19.48;9.55;;;;;;;6.10;100.00;100954.88;5110978;28;20051;-43
2023/12/28 05:49:17;;;;;;;17.17;9.30;;;;;;;5.98;100.00;100949.91;5110681;28;20039;-42
2023/12/28 05:51:47;;;;;;;16.65;9.40;;;;;;;6.19;100.00;100944.00;5099850;28;20073;-42
2023/12/28 05:54:16;;;;;;;15.60;8.35;;;;;;;6.13;100.00;100949.47;5090133;28;20052;-42
2023/12/28 05:56:44;;;;;;;17.77;8.70;;;;;;;6.08;100.00;100951.41;5089671;28;20139;-41
2023/12/28 05:59:12;;;;;;;18.45;9.68;;;;;;;6.06;100.00;100947.03;5088996;28;20191;-42
2023/12/28 06:01:43;;;;;;;19.50;9.20;;;;;;;6.23;100.00;100953.56;5104408;28;20048;-42
2023/12/28 06:04:12;;;;;;;15.45;8.77;;;;;;;6.10;100.00;100949.56;5110472;28;20043;-41
2023/12/28 06:06:40;;;;;;;17.83;9.32;;;;;;;6.10;100.00;100954.88;5110427;28;20103;-41
2023/12/28 06:09:11;;;;;;;16.48;9.63;;;;;;;6.11;100.00;100943.34;5110153;28;20503;-41
2023/12/28 06:11:40;;;;;;;18.85;9.48;;;;;;;6.03;100.00;100943.59;5100545;28;20121;-41
2023/12/28 06:14:08;;;;;;;16.13;9.23;;;;;;;5.94;100.00;100948.28;5089890;28;20074;-42
2023/12/28 06:16:36;;;;;;;17.65;9.15;;;;;;;5.96;100.00;100949.97;5090115;28;20048;-42
2023/12/28 06:19:05;;;;;;;16.55;9.63;;;;;;;5.97;100.00;100954.34;5090616;28;20091;-41
2023/12/28 06:21:34;;;;;;;14.75;8.93;;;;;;;5.98;100.00;100949.91;5093640;28;20068;-42
2023/12/28 06:24:02;;;;;;;17.27;8.93;;;;;;;6.00;100.00;100953.41;5093257;28;20435;-43
2023/12/28 06:26:32;;;;;;;15.65;8.93;;;;;;;5.99;100.00;100941.09;5110331;28;20108;-41
2023/12/28 06:29:00;;;;;;;17.30;8.95;;;;;;;5.96;100.00;100946.47;5109361;28;20472;-43
2023/12/28 06:31:29;;;;;;;18.58;9.52;;;;;;;5.83;100.00;100955.66;5113644;28;20476;-42
2023/12/28 06:33:58;;;;;;;17.27;9.63;;;;;;;5.85;100.00;100964.41;5113679;28;20055;-42
2023/12/28 06:36:26;;;;;;;17.35;9.65;;;;;;;5.75;100.00;100955.88;5110324;28;20405;-42
2023/12/28 06:38:54;;;;;;;19.55;10.55;;;;;;;5.95;100.00;100947.38;5093564;28;20048;-41
2023/12/28 06:41:23;;;;;;;19.65;10.13;;;;;;;5.85;100.00;100956.47;5093905;28;20040;-42
2023/12/28 06:43:53;;;;;;;18.15;9.77;;;;;;;5.78;100.00;100962.84;5105773;28;20044;-42
2023/12/28 06:46:24;;;;;;;17.90;10.05;;;;;;;5.84;100.00;100973.28;5114004;28;20043;-41
2023/12/28 06:48:53;;;;;;;18.63;9.93;;;;;;;5.86;100.00;100974.09;5113902;28;20043;-43
2023/12/28 06:51:22;;;;;;;17.10;9.38;;;;;;;5.85;100.00;100981.16;5113866;28;20130;-41
2023/12/28 06:53:51;;;;;;;19.65;10.05;;;;;;;5.86;100.00;100984.69;5114019;28;20044;-44
2023/12/28 06:56:19;;;;;;;20.83;10.48;;;;;;;5.91;100.00;100985.47;5095204;28;20130;-41
2023/12/28 06:58:48;;;;;;;17.83;10.13;;;;;;;5.88;100.00;100974.91;5093392;28;20044;-41
2023/12/28 07:01:18;;;;;;;18.35;10.02;;;;;;;6.00;100.00;100994.00;5108162;28;20043;-42
2023/12/28 07:03:47;;;;;;;19.70;10.82;;;;;;;5.96;100.00;100991.47;5110364;28;20043;-42
2023/12/28 07:06:16;;;;;;;29.40;13.43;;;;;;;5.58;100.00;100988.09;5109487;28;20036;-41
2023/12/28 07:08:44;;;;;;;29.65;13.65;;;;;;;5.63;100.00;100980.94;5098190;28;20054;-41
2023/12/28 07:11:13;;;;;;;24.40;13.25;;;;;;;5.49;100.00;100983.06;5099265;28;20040;-42
2023/12/28 07:13:41;;;;;;;22.63;12.57;;;;;;;5.60;100.00;100981.03;5098141;28;20052;-41
2023/12/28 07:16:10;;;;;;;22.00;12.98;;;;;;;5.41;100.00;100979.78;5092789;28;20048;-42
2023/12/28 07:18:39;;;;;;;24.60;12.43;;;;;;;5.37;100.00;100978.13;5092700;28;20542;-42
2023/12/28 07:21:09;;;;;;;22.30;12.48;;;;;;;5.17;100.00;100979.53;5092867;28;20331;-42
2023/12/28 07:23:38;;;;;;;22.70;13.02;;;;;;;5.31;100.00;100975.66;5093097;28;20048;-42
2023/12/28 07:26:07;;;;;;;22.23;13.10;;;;;;;5.27;100.00;100976.63;5092792;28;20044;-41
2023/12/28 07:28:35;;;;;;;27.02;14.60;;;;;;;5.22;100.00;100968.84;5109307;28;20047;-42
2023/12/28 07:31:04;;;;;;;27.20;14.30;;;;;;;5.38;100.00;100979.84;5099522;28;20040;-41
2023/12/28 07:33:32;;;;;;;28.20;14.48;;;;;;;5.55;100.00;100982.91;5092850;28;20125;-41
2023/12/28 07:36:03;;;;;;;24.63;13.95;;;;;;;5.65;100.00;100981.75;5107600;28;20047;-42
2023/12/28 07:38:32;;;;;;;27.13;13.55;;;;;;;5.54;100.00;100994.41;5093105;28;20412;-42
2023/12/28 07:41:00;;;;;;;30.42;14.75;;;;;;;4.70;100.00;101001.00;5092398;28;20180;-41
2023/12/28 07:43:29;;;;;;;34.72;19.50;;;;;;;4.47;100.00;100998.91;5106139;28;20505;-40
2023/12/28 07:45:58;;;;;;;38.03;19.80;;;;;;;4.72;100.00;101001.84;5103259;28;20044;-42
2023/12/28 07:48:26;;;;;;;33.33;18.98;;;;;;;4.78;100.00;101001.69;5092405;28;20040;-42
2023/12/28 07:50:54;;;;;;;33.95;18.58;;;;;;;4.84;100.00;101002.41;5092144;28;20040;-43
2023/12/28 07:53:24;;;;;;;36.22;19.05;;;;;;;5.04;100.00;101006.34;5111060;28;20054;-42
2023/12/28 07:55:52;;;;;;;36.80;19.67;;;;;;;5.20;100.00;100996.22;5112459;28;20058;-40
2023/12/28 07:58:20;;;;;;;39.83;19.33;;;;;;;5.31;100.00;100994.19;5111090;28;20043;-41
2023/12/28 08:00:49;;;;;;;35.08;18.38;;;;;;;5.47;100.00;100990.19;5101646;28;20064;-43
2023/12/28 08:03:17;;;;;;;31.02;18.73;;;;;;;5.66;100.00;100980.81;5097000;28;20042;-42
2023/12/28 08:05:46;;;;;;;30.92;17.48;;;;;;;5.60;100.00;100981.03;5096376;28;20492;-42
2023/12/28 08:08:14;;;;;;;31.10;17.70;;;;;;;5.89;100.00;100982.84;5097321;28;20044;-41
2023/12/28 08:10:44;;;;;;;35.33;18.13;;;;;;;5.87;100.00;100989.94;5098404;28;20110;-41
2023/12/28 08:13:12;;;;;;;34.22;17.65;;;;;;;5.72;100.00;100988.59;5099486;28;20067;-41
2023/12/28 08:15:41;;;;;;;32.58;17.90;;;;;;;5.75;100.00;100991.16;5097616;28;20047;-42
2023/12/28 08:18:09;;;;;;;29.67;17.55;;;;;;;5.97;100.00;100990.56;5099191;28;20469;-41
2023/12/28 08:20:38;;;;;;;31.40;17.30;;;;;;;5.96;100.00;100989.69;5095368;28;20052;-42
2023/12/28 08:23:07;;;;;;;34.20;19.00;;;;;;;5.93;100.00;100988.94;5112072;28;20048;-41
2023/12/28 08:25:46;;;;;;;32.42;18.63;;;;;;;5.36;100.00;100986.97;5091788;28;20130;-42
2023/12/28 08:28:16;;;;;;;30.52;17.65;;;;;;;5.56;100.00;100995.22;5111932;28;20044;-42
2023/12/28 08:30:45;;;;;;;29.05;17.88;;;;;;;5.40;100.00;100997.44;5109490;28;20047;-40
2023/12/28 08:33:15;;;;;;;29.13;17.48;;;;;;;5.36;100.00;101002.84;5099395;28;20056;-41
2023/12/28 08:35:43;;;;;;;27.77;16.45;;;;;;;5.53;100.00;101005.91;5103905;28;20051;-43
2023/12/28 08:38:12;;;;;;;32.15;17.60;;;;;;;5.34;100.00;101004.69;5096207;28;20104;-41
2023/12/28 08:40:40;;;;;;;32.80;17.58;;;;;;;5.53;100.00;100999.75;5095569;28;20719;-40
2023/12/28 08:43:10;;;;;;;27.70;17.27;;;;;;;5.87;100.00;101007.59;5096354;28;20393;-42
2023/12/28 08:45:39;;;;;;;28.15;16.90;;;;;;;5.97;100.00;101003.81;5097004;28;20123;-41
2023/12/28 08:48:07;;;;;;;26.90;16.00;;;;;;;5.61;100.00;101006.56;5097033;28;20055;-41
2023/12/28 08:50:36;;;;;;;29.92;17.35;;;;;;;5.90;100.00;101005.78;5096642;28;20048;-42
2023/12/28 08:53:04;;;;;;;30.67;17.48;;;;;;;6.12;100.00;101010.44;5095713;28;20052;-42
2023/12/28 08:55:33;;;;;;;30.75;16.63;;;;;;;6.24;100.00;101005.63;5096614;28;20411;-43
2023/12/28 08:58:01;;;;;;;27.13;16.33;;;;;;;6.38;100.00;101014.97;5096343;28;20050;-40
2023/12/28 09:00:32;;;;;;;33.03;17.40;;;;;;;6.56;100.00;101009.06;5095383;28;20499;-42
2023/12/28 09:03:00;;;;;;;30.85;16.40;;;;;;;6.47;100.00;101007.59;5095753;28;20103;-41
2023/12/28 09:05:29;;;;;;;27.63;16.38;;;;;;;6.68;100.00;101005.19;5095347;28;20116;-40
2023/12/28 09:07:58;;;;;;;27.70;16.55;;;;;;;6.70;100.00;100988.28;5097128;28;20079;-41
2023/12/28 09:10:26;;;;;;;31.45;16.98;;;;;;;6.78;100.00;100985.41;5097334;28;20618;-41
2023/12/28 09:12:54;;;;;;;26.70;16.27;;;;;;;6.87;100.00;100988.63;5098009;28;20051;-42
2023/12/28 09:15:23;;;;;;;27.25;16.90;;;;;;;6.94;100.00;100985.72;5101956;28;20143;-41
2023/12/28 09:17:52;;;;;;;27.30;16.02;;;;;;;6.66;100.00;100985.78;5096624;28;20040;-42
2023/12/28 09:20:21;;;;;;;27.20;16.63;;;;;;;6.55;100.00;100978.16;5094465;28;20450;-41
2023/12/28 09:22:53;;;;;;;30.83;17.30;;;;;;;6.06;100.00;100979.69;5094271;28;20048;-41
2023/12/28 09:25:21;;;;;;;30.45;15.85;;;;;;;6.34;100.00;100979.72;5099222;28;20074;-41
2023/12/28 09:27:49;;;;;;;29.45;16.67;;;;;;;6.42;100.00;100982.13;5095218;28;20040;-40
2023/12/28 09:30:19;;;;;;;26.15;16.80;;;;;;;6.37;100.00;100968.16;5095860;28;20133;-43
2023/12/28 09:32:47;;;;;;;28.25;16.73;;;;;;;6.46;100.00;100951.97;5096315;28;20086;-43
2023/12/28 09:35:17;;;;;;;37.80;18.48;;;;;;;6.54;100.00;100957.88;5085533;28;20066;-43
2023/12/28 09:37:47;;;;;;;32.22;17.35;;;;;;;6.44;100.00;100961.75;5102520;28;20063;-41
2023/12/28 09:40:16;;;;;;;27.88;16.55;;;;;;;6.63;100.00;100951.41;5104985;28;20036;-44
2023/12/28 09:42:52;;;;;;;28.98;17.15;;;;;;;6.65;100.00;100942.50;5111519;28;20052;-42
2023/12/28 09:45:21;;;;;;;28.13;15.80;;;;;;;6.51;100.00;100931.50;5111716;28;20050;-41
2023/12/28 09:47:50;;;;;;;29.52;17.67;;;;;;;6.56;100.00;100937.50;5110315;28;20044;-42
2023/12/28 09:50:21;;;;;;;28.27;16.20;;;;;;;6.54;100.00;100929.59;5103384;28;20048;-42
2023/12/28 09:52:49;;;;;;;27.75;15.93;;;;;;;6.60;100.00;100931.19;5092363;28;20040;-43
2023/12/28 09:55:17;;;;;;;26.83;15.90;;;;;;;6.93;100.00;100930.97;5093405;28;20149;-44
2023/12/28 09:57:46;;;;;;;29.90;16.33;;;;;;;7.03;100.00;100929.72;5099582;28;20040;-42
2023/12/28 10:00:15;;;;;;;29.45;16.67;;;;;;;6.92;100.00;100918.63;5115234;28;20385;-42
2023/12/28 10:02:48;;;;;;;28.23;16.23;;;;;;;6.97;100.00;100906.94;5108097;28;20123;-41
2023/12/28 10:05:16;;;;;;;30.80;16.83;;;;;;;7.09;100.00;100908.28;5096101;28;20040;-41
2023/12/28 10:07:48;;;;;;;27.95;16.33;;;;;;;6.99;100.00;100906.88;5103966;28;20120;-43
2023/12/28 10:10:22;;;;;;;28.90;16.67;;;;;;;7.23;100.00;100899.84;5100748;28;20040;-43
2023/12/28 10:12:50;;;;;;;26.30;16.48;;;;;;;7.55;100.00;100898.66;5107302;28;20051;-40
2023/12/28 10:15:22;;;;;;;29.55;16.40;;;;;;;7.44;100.00;100891.13;5094556;28;20090;-40
2023/12/28 10:17:52;;;;;;;30.52;16.50;;;;;;;7.35;100.00;100884.34;5100828;28;20044;-44
2023/12/28 10:20:20;;;;;;;33.50;18.30;;;;;;;7.10;100.00;100880.84;5097879;28;20465;-41
2023/12/28 10:22:51;;;;;;;29.75;16.67;;;;;;;7.26;100.00;100878.50;5098306;28;20436;-40
2023/12/28 10:25:19;;;;;;;29.50;17.60;;;;;;;7.41;100.00;100878.78;5098246;28;20068;-41
2023/12/28 10:27:51;;;;;;;32.70;17.55;;;;;;;7.32;100.00;100878.28;5097523;28;20060;-41
2023/12/28 10:30:21;;;;;;;32.38;17.83;;;;;;;7.24;100.00;100873.28;5096706;28;20051;-41
2023/12/28 10:32:50;;;;;;;29.45;16.90;;;;;;;7.42;100.00;100874.34;5097741;28;20052;-43
2023/12/28 10:35:19;;;;;;;27.42;16.85;;;;;;;7.60;100.00;100875.44;5099473;28;20097;-42
2023/12/28 10:37:53;;;;;;;30.38;17.73;;;;;;;7.67;100.00;100866.34;5100452;28;20695;-40
2023/12/28 10:40:22;;;;;;;32.72;16.13;;;;;;;7.54;100.00;100875.72;5099835;28;20044;-42
2023/12/28 10:42:53;;;;;;;33.10;17.25;;;;;;;7.77;100.00;100867.72;5099929;28;20043;-42
2023/12/28 10:45:26;;;;;;;27.40;15.55;;;;;;;7.93;100.00;100858.22;5096620;28;20141;-42
2023/12/28 10:48:10;;;;;;;28.25;16.10;;;;;;;7.99;100.00;100855.31;5095030;28;20036;-47
2023/12/28 10:50:42;;;;;;;26.73;15.63;;;;;;;8.03;100.00;100846.31;5099209;28;20058;-42
2023/12/28 10:53:27;;;;;;;27.80;15.13;;;;;;;8.11;100.00;100850.47;5104948;28;20048;-42
2023/12/28 10:56:07;;;;;;;26.23;15.88;;;;;;;8.15;100.00;100844.06;5101119;28;20078;-42
2023/12/28 10:58:46;;;;;;;28.38;16.00;;;;;;;8.13;100.00;100843.28;5105123;28;20051;-42
2023/12/28 11:01:18;;;;;;;30.88;15.52;;;;;;;8.19;100.00;100845.66;5100149;28;20143;-43
2023/12/28 11:03:52;;;;;;;30.42;16.33;;;;;;;8.32;100.00;100838.94;5117429;28;20502;-41
2023/12/28 11:06:21;;;;;;;27.77;15.35;;;;;;;8.32;100.00;100834.50;5112926;28;20128;-41
2023/12/28 11:08:53;;;;;;;27.15;16.27;;;;;;;8.38;100.00;100820.09;5097070;28;20052;-42
2023/12/28 11:11:24;;;;;;;29.20;16.80;;;;;;;8.34;100.00;100823.78;5092321;28;20052;-41
2023/12/28 11:13:55;;;;;;;27.55;16.45;;;;;;;8.32;100.00;100820.34;5091564;28;20047;-42
2023/12/28 11:16:25;;;;;;;29.25;15.98;;;;;;;8.51;100.00;100813.34;5097308;28;20110;-42
2023/12/28 11:18:54;;;;;;;28.63;16.48;;;;;;;8.49;100.00;100815.22;5092152;28;20044;-43
2023/12/28 11:21:24;;;;;;;25.60;16.38;;;;;;;8.32;100.00;100807.03;5099413;28;20046;-41